createdAt,value
2023-03-20T00:03:39.231Z,72.10
2023-03-20T00:07:39.280Z,77.85
2023-03-20T00:11:39.417Z,74.26
2023-03-20T00:15:39.584Z,75.23
2023-03-20T00:19:40.157Z,74.58
2023-03-20T00:23:39.815Z,74.66
2023-03-20T00:27:39.952Z,74.60
2023-03-20T00:31:40.128Z,76.52
2023-03-20T00:35:40.208Z,71.87
2023-03-20T00:39:40.258Z,75.44
2023-03-20T00:43:40.564Z,72.45
2023-03-20T00:47:40.481Z,74.22
2023-03-20T00:51:40.506Z,74.42
2023-03-20T00:55:40.443Z,75.10
2023-03-20T00:59:40.389Z,76.15
2023-03-20T01:03:40.805Z,72.04
2023-03-20T01:07:40.344Z,73.13
2023-03-20T01:11:40.280Z,71.37
2023-03-20T01:15:40.264Z,76.04
2023-03-20T01:19:40.227Z,74.88
2023-03-20T01:23:40.220Z,75.07
2023-03-20T01:27:40.138Z,72.94
2023-03-20T01:31:40.151Z,71.17
2023-03-20T01:35:40.105Z,73.43
2023-03-20T01:39:40.007Z,71.74
2023-03-20T01:43:40.194Z,69.93
2023-03-20T01:47:40.156Z,74.68
2023-03-20T01:51:40.344Z,72.60
2023-03-20T01:55:40.470Z,73.38
2023-03-20T01:59:40.642Z,71.07
2023-03-20T02:03:40.780Z,69.88
2023-03-20T02:07:40.961Z,73.12
2023-03-20T02:11:41.118Z,68.92
2023-03-20T02:15:41.269Z,70.82
2023-03-20T02:19:41.445Z,69.58
2023-03-20T02:23:41.637Z,72.49
2023-03-20T02:27:41.817Z,69.10
2023-03-20T02:31:41.931Z,70.70
2023-03-20T02:35:42.190Z,71.74
2023-03-20T02:39:42.359Z,70.07
2023-03-20T02:43:42.608Z,67.64
2023-03-20T02:47:42.724Z,72.02
2023-03-20T02:51:42.941Z,74.70
2023-03-20T02:55:43.138Z,69.71
2023-03-20T02:59:43.319Z,71.23
2023-03-20T03:03:43.531Z,67.14
2023-03-20T03:07:43.716Z,69.79
2023-03-20T03:11:43.958Z,68.77
2023-03-20T03:15:44.160Z,72.29
2023-03-20T03:19:44.359Z,70.24
2023-03-20T03:23:44.557Z,66.03
2023-03-20T03:27:44.729Z,70.18
2023-03-20T03:31:44.972Z,67.70
2023-03-20T03:35:45.152Z,69.24
2023-03-20T03:39:45.341Z,68.94
2023-03-20T03:43:45.556Z,67.21
2023-03-20T03:47:45.726Z,66.92
2023-03-20T03:51:45.965Z,69.64
2023-03-20T03:55:46.208Z,67.44
2023-03-20T03:59:46.435Z,70.40
2023-03-20T04:03:46.567Z,65.99
2023-03-20T04:07:46.792Z,65.84
2023-03-20T04:11:46.716Z,68.40
2023-03-20T04:15:46.742Z,69.38
2023-03-20T04:19:46.673Z,70.93
2023-03-20T04:23:46.656Z,71.87
2023-03-20T04:27:46.580Z,69.70
2023-03-20T04:31:46.591Z,63.66
2023-03-20T04:35:46.556Z,66.14
2023-03-20T04:39:46.471Z,63.05
2023-03-20T04:43:46.475Z,67.70
2023-03-20T04:47:46.455Z,64.51
2023-03-20T04:51:46.753Z,65.07
2023-03-20T04:55:46.460Z,69.26
2023-03-20T04:59:46.418Z,69.19
2023-03-20T05:03:46.831Z,68.67
2023-03-20T05:07:46.343Z,68.92
2023-03-20T05:11:46.309Z,67.45
2023-03-20T05:15:46.727Z,61.74
2023-03-20T05:19:46.264Z,62.41
2023-03-20T05:23:46.185Z,60.10
2023-03-20T05:27:46.179Z,57.71
2023-03-20T05:31:46.186Z,57.56
2023-03-20T05:35:46.177Z,53.42
2023-03-20T05:39:46.136Z,59.20
2023-03-20T05:43:46.065Z,57.54
2023-03-20T05:47:46.036Z,58.70
2023-03-20T05:51:46.022Z,58.10
2023-03-20T05:55:45.976Z,56.81
2023-03-20T05:59:45.908Z,57.04
2023-03-20T06:03:45.930Z,59.93
2023-03-20T06:07:45.852Z,54.83
2023-03-20T06:11:46.002Z,51.21
2023-03-20T06:15:45.946Z,51.12
2023-03-20T06:19:46.271Z,50.51
2023-03-20T06:23:45.878Z,47.19
2023-03-20T06:27:45.789Z,45.60
2023-03-20T06:31:45.776Z,47.70
2023-03-20T06:35:45.831Z,43.89
2023-03-20T06:39:45.658Z,42.79
2023-03-20T06:43:45.606Z,50.17
2023-03-20T06:47:45.652Z,33.40
2023-03-20T06:51:45.549Z,26.37
2023-03-20T06:55:45.528Z,49.60
2023-03-20T06:59:45.799Z,50.05
2023-03-20T07:03:45.784Z,56.87
2023-03-20T07:07:45.810Z,48.43
2023-03-20T07:11:45.429Z,43.53
2023-03-20T07:16:01.220Z,50.11
2023-03-20T07:19:46.359Z,54.02
2023-03-20T07:23:45.826Z,63.92
2023-03-20T07:27:45.442Z,73.52
2023-03-20T07:31:45.572Z,66.13
2023-03-20T07:35:45.662Z,79.67
2023-03-20T07:39:45.626Z,108.75
2023-03-20T07:43:45.807Z,136.11
2023-03-20T07:47:45.555Z,109.24
2023-03-20T07:51:45.469Z,121.21
2023-03-20T07:55:48.319Z,152.22
2023-03-20T07:59:45.525Z,148.72
2023-03-20T08:03:47.378Z,144.48
2023-03-20T08:07:45.337Z,124.73
2023-03-20T08:11:45.341Z,138.46
2023-03-20T08:15:45.295Z,122.19
2023-03-20T08:19:45.317Z,242.04
2023-03-20T08:23:45.826Z,225.81
2023-03-20T08:27:45.555Z,191.55
2023-03-20T08:31:45.833Z,157.95
2023-03-20T08:35:46.083Z,149.55
2023-03-20T08:39:45.940Z,175.46
2023-03-20T08:43:45.924Z,185.11
2023-03-20T08:47:45.898Z,214.56
2023-03-20T08:51:45.811Z,211.33
2023-03-20T08:55:45.838Z,209.88
2023-03-20T08:59:46.327Z,211.63
2023-03-20T09:03:45.702Z,215.79
2023-03-20T09:07:45.669Z,218.47
2023-03-20T09:11:45.839Z,221.49
2023-03-20T09:15:45.636Z,219.10
2023-03-20T09:19:46.140Z,221.72
2023-03-20T09:23:45.618Z,220.54
2023-03-20T09:27:45.878Z,221.39
2023-03-20T09:31:45.566Z,215.57
2023-03-20T09:35:45.517Z,204.98
2023-03-20T09:39:45.469Z,174.67
2023-03-20T09:43:47.328Z,34.80
2023-03-20T09:47:46.398Z,38.42
2023-03-20T09:51:45.408Z,28.14
2023-03-20T09:55:45.482Z,73.53
2023-03-20T09:59:45.284Z,67.43
2023-03-20T10:03:45.378Z,82.97
2023-03-20T10:07:45.243Z,81.41
2023-03-20T10:11:45.439Z,58.22
2023-03-20T10:15:45.381Z,69.65
2023-03-20T10:19:45.111Z,62.15
2023-03-20T10:23:45.062Z,63.74
2023-03-20T10:27:45.083Z,43.57
2023-03-20T10:31:45.096Z,50.80
2023-03-20T10:35:45.407Z,0.00
2023-03-20T10:39:45.115Z,81.53
2023-03-20T10:43:45.367Z,126.54
2023-03-20T10:47:44.916Z,143.29
2023-03-20T10:51:44.886Z,156.25
2023-03-20T10:55:44.870Z,167.06
2023-03-20T10:59:44.831Z,176.27
2023-03-20T11:03:44.831Z,183.07
2023-03-20T11:07:44.728Z,188.96
2023-03-20T11:11:44.721Z,197.05
2023-03-20T11:15:44.644Z,196.36
2023-03-20T11:19:44.613Z,200.67
2023-03-20T11:23:45.426Z,205.81
2023-03-20T11:27:45.012Z,212.53
2023-03-20T11:31:45.737Z,122.34
2023-03-20T11:35:44.905Z,164.99
2023-03-20T11:39:44.895Z,179.65
2023-03-20T11:43:45.027Z,188.35
2023-03-20T11:47:45.144Z,187.71
2023-03-20T11:51:45.226Z,186.05
2023-03-20T11:55:45.249Z,189.47
2023-03-20T11:59:45.354Z,191.10
2023-03-20T12:03:45.462Z,190.61
2023-03-20T12:07:45.310Z,196.12
2023-03-20T12:11:45.443Z,200.76
2023-03-20T12:15:45.259Z,204.80
2023-03-20T12:19:45.212Z,210.17
2023-03-20T12:23:45.452Z,139.40
2023-03-20T12:27:45.196Z,61.66
2023-03-20T12:31:45.104Z,18.55
2023-03-20T12:35:45.066Z,25.00
2023-03-20T12:39:44.995Z,23.32
2023-03-20T12:43:44.967Z,30.07
2023-03-20T12:47:44.974Z,27.53
2023-03-20T12:51:44.924Z,31.98
2023-03-20T12:55:44.836Z,54.41
2023-03-20T12:59:44.829Z,49.42
2023-03-20T13:03:45.010Z,40.48
2023-03-20T13:07:44.908Z,98.68
2023-03-20T13:11:44.749Z,128.83
2023-03-20T13:15:44.674Z,154.21
2023-03-20T13:19:45.007Z,169.81
2023-03-20T13:23:44.934Z,181.98
2023-03-20T13:27:45.463Z,191.37
2023-03-20T13:31:45.285Z,198.55
2023-03-20T13:35:45.384Z,158.18
2023-03-20T13:39:45.501Z,125.11
2023-03-20T13:43:46.505Z,125.19
2023-03-20T13:47:45.717Z,122.66
2023-03-20T13:51:45.682Z,128.07
2023-03-20T13:55:45.632Z,135.92
2023-03-20T13:59:45.590Z,144.99
2023-03-20T14:03:45.630Z,144.39
2023-03-20T14:07:45.943Z,127.19
2023-03-20T14:11:45.460Z,141.05
2023-03-20T14:15:45.489Z,153.81
2023-03-20T14:19:45.416Z,156.87
2023-03-20T14:23:45.394Z,131.60
2023-03-20T14:27:46.006Z,148.30
2023-03-20T14:31:45.460Z,167.11
2023-03-20T14:35:45.422Z,178.67
2023-03-20T14:39:45.350Z,180.23
2023-03-20T14:43:45.986Z,183.37
2023-03-20T14:47:45.297Z,186.13
2023-03-20T14:51:45.279Z,186.23
2023-03-20T14:55:45.256Z,191.50
2023-03-20T14:59:45.182Z,201.89
2023-03-20T15:03:45.103Z,201.02
2023-03-20T15:07:45.077Z,200.11
2023-03-20T15:11:45.067Z,199.28
2023-03-20T15:15:45.028Z,201.97
2023-03-20T15:19:45.062Z,201.79
2023-03-20T15:23:44.937Z,201.54
2023-03-20T15:27:44.908Z,203.12
2023-03-20T15:31:44.886Z,203.37
2023-03-20T15:35:44.871Z,206.68
2023-03-20T15:39:44.888Z,204.17
2023-03-20T15:43:44.781Z,203.74
2023-03-20T15:47:44.739Z,203.69
2023-03-20T15:51:44.725Z,198.86
2023-03-20T15:55:44.631Z,199.12
2023-03-20T15:59:44.674Z,200.87
2023-03-20T16:03:44.632Z,201.00
2023-03-20T16:07:44.562Z,202.48
2023-03-20T16:11:44.464Z,203.62
2023-03-20T16:15:44.502Z,204.84
2023-03-20T16:19:44.545Z,205.32
2023-03-20T16:23:44.519Z,200.66
2023-03-20T16:27:44.447Z,201.17
2023-03-20T16:31:44.495Z,200.20
2023-03-20T16:35:44.439Z,198.29
2023-03-20T16:39:44.446Z,196.29
2023-03-20T16:43:44.301Z,195.90
2023-03-20T16:47:44.269Z,193.87
2023-03-20T16:51:44.202Z,195.55
2023-03-20T16:55:44.221Z,193.38
2023-03-20T16:59:44.245Z,192.97
2023-03-20T17:03:44.338Z,193.24
2023-03-20T17:07:44.544Z,192.64
2023-03-20T17:11:44.465Z,192.36
2023-03-20T17:15:44.514Z,191.11
2023-03-20T17:19:44.648Z,191.07
2023-03-20T17:23:44.738Z,188.58
2023-03-20T17:27:44.913Z,193.01
2023-03-20T17:31:45.210Z,191.04
2023-03-20T17:35:45.222Z,191.09
2023-03-20T17:39:45.354Z,191.28
2023-03-20T17:43:45.500Z,191.81
2023-03-20T17:47:45.697Z,187.47
2023-03-20T17:51:45.899Z,188.04
2023-03-20T17:55:46.057Z,188.18
2023-03-20T17:59:46.304Z,189.89
2023-03-20T18:03:46.504Z,192.03
2023-03-20T18:07:46.667Z,190.79
2023-03-20T18:11:46.896Z,191.58
2023-03-20T18:15:47.162Z,190.74
2023-03-20T18:19:47.064Z,189.95
2023-03-20T18:23:47.042Z,190.91
2023-03-20T18:27:47.015Z,189.33
2023-03-20T18:31:47.181Z,189.32
2023-03-20T18:35:46.917Z,189.65
2023-03-20T18:39:46.886Z,188.90
2023-03-20T18:43:46.824Z,189.17
2023-03-20T18:47:46.826Z,187.32
2023-03-20T18:51:46.762Z,186.46
2023-03-20T18:55:46.848Z,186.23
2023-03-20T18:59:46.848Z,185.34
2023-03-20T19:03:46.844Z,182.67
2023-03-20T19:07:46.750Z,182.18
2023-03-20T19:11:46.709Z,181.41
2023-03-20T19:15:46.727Z,183.29
2023-03-20T19:19:47.088Z,180.26
2023-03-20T19:23:46.601Z,178.79
2023-03-20T19:27:46.563Z,179.99
2023-03-20T19:31:46.536Z,179.29
2023-03-20T19:36:02.390Z,177.02
2023-03-20T19:39:47.458Z,177.34
2023-03-20T19:43:52.868Z,174.41
2023-03-20T19:47:47.344Z,173.87
2023-03-20T19:51:46.344Z,174.29
2023-03-20T19:55:46.293Z,169.61
2023-03-20T19:59:46.295Z,170.89
2023-03-20T20:03:46.232Z,171.65
2023-03-20T20:08:18.603Z,170.26
2023-03-20T20:11:47.155Z,171.24
2023-03-20T20:15:46.112Z,172.03
2023-03-20T20:19:46.091Z,171.52
2023-03-20T20:23:46.127Z,170.85
2023-03-20T20:27:46.013Z,172.20
2023-03-20T20:31:45.989Z,170.89
2023-03-20T20:36:18.529Z,169.28
2023-03-20T20:39:46.936Z,170.47
2023-03-20T20:44:14.728Z,170.37
2023-03-20T20:47:46.821Z,170.87
2023-03-20T20:51:45.782Z,168.17
2023-03-20T20:55:45.786Z,167.45
2023-03-20T20:59:45.799Z,168.91
2023-03-20T21:03:45.693Z,169.09
2023-03-20T21:07:45.813Z,169.33
2023-03-20T21:11:45.698Z,167.47
2023-03-20T21:15:46.026Z,170.65
2023-03-20T21:19:45.820Z,168.98
2023-03-20T21:23:45.918Z,172.81
2023-03-20T21:27:45.977Z,173.84
2023-03-20T21:31:46.072Z,172.33
2023-03-20T21:35:46.177Z,173.07
2023-03-20T21:39:46.272Z,172.84
2023-03-20T21:43:46.237Z,173.08
2023-03-20T22:08:28.024Z,176.07
2023-03-20T22:12:50.034Z,175.94
2023-03-20T22:16:27.051Z,176.40
2023-03-20T22:28:22.489Z,177.07
2023-03-20T22:32:40.913Z,176.11
2023-03-20T22:36:25.543Z,176.68
2023-03-20T22:40:29.142Z,176.66
2023-03-20T22:47:46.782Z,176.99
2023-03-20T22:52:04.641Z,178.58
2023-03-20T22:55:46.695Z,176.76
2023-03-20T22:59:45.677Z,178.05
2023-03-20T23:03:45.698Z,177.98
2023-03-20T23:07:45.641Z,178.30
2023-03-20T23:11:45.658Z,179.50
2023-03-20T23:15:45.790Z,177.19
2023-03-20T23:19:52.010Z,178.38
2023-03-20T23:23:46.860Z,178.04
2023-03-20T23:27:45.837Z,177.97
2023-03-20T23:31:46.249Z,178.98
2023-03-20T23:35:45.855Z,178.59
2023-03-20T23:39:45.917Z,180.75
2023-03-20T23:43:45.980Z,178.17
2023-03-20T23:47:46.188Z,178.97
2023-03-20T23:51:46.688Z,178.34
2023-03-20T23:55:46.738Z,179.03
2023-03-20T23:59:46.609Z,179.96
